sensor_id;sensor_type;location;lat;lon;timestamp;temperature;humidity
46356;DHT22;32066;49.474;11.106;2022-09-25T00:00:54;15.40;99.00
46356;DHT22;32066;49.474;11.106;2022-09-25T00:03:24;15.40;99.00
46356;DHT22;32066;49.474;11.106;2022-09-25T00:05:51;15.40;99.00
46356;DHT22;32066;49.474;11.106;2022-09-25T00:08:20;15.40;99.00
46356;DHT22;32066;49.474;11.106;2022-09-25T00:10:49;15.30;98.90
46356;DHT22;32066;49.474;11.106;2022-09-25T00:13:17;15.40;98.90
46356;DHT22;32066;49.474;11.106;2022-09-25T00:15:45;15.30;98.90
46356;DHT22;32066;49.474;11.106;2022-09-25T00:18:13;15.40;98.80
46356;DHT22;32066;49.474;11.106;2022-09-25T00:20:41;15.30;98.80
46356;DHT22;32066;49.474;11.106;2022-09-25T00:23:07;15.30;98.80
46356;DHT22;32066;49.474;11.106;2022-09-25T00:25:34;15.30;98.80
46356;DHT22;32066;49.474;11.106;2022-09-25T00:28:01;15.30;98.90
46356;DHT22;32066;49.474;11.106;2022-09-25T00:30:28;15.30;98.80
46356;DHT22;32066;49.474;11.106;2022-09-25T00:32:55;15.20;99.00
46356;DHT22;32066;49.474;11.106;2022-09-25T00:35:22;15.30;99.00
46356;DHT22;32066;49.474;11.106;2022-09-25T00:37:50;15.20;99.00
46356;DHT22;32066;49.474;11.106;2022-09-25T00:40:17;15.30;98.90
46356;DHT22;32066;49.474;11.106;2022-09-25T00:42:44;15.20;98.90
46356;DHT22;32066;49.474;11.106;2022-09-25T00:45:15;15.20;98.90
46356;DHT22;32066;49.474;11.106;2022-09-25T00:47:55;15.20;99.00
46356;DHT22;32066;49.474;11.106;2022-09-25T00:50:30;15.20;98.90
46356;DHT22;32066;49.474;11.106;2022-09-25T00:53:02;15.20;98.90
46356;DHT22;32066;49.474;11.106;2022-09-25T00:55:32;15.20;99.00
46356;DHT22;32066;49.474;11.106;2022-09-25T00:58:00;15.20;99.00
46356;DHT22;32066;49.474;11.106;2022-09-25T01:00:28;15.10;98.90
46356;DHT22;32066;49.474;11.106;2022-09-25T01:02:56;15.10;99.00
46356;DHT22;32066;49.474;11.106;2022-09-25T01:05:25;15.10;98.90
46356;DHT22;32066;49.474;11.106;2022-09-25T01:07:55;15.20;98.90
46356;DHT22;32066;49.474;11.106;2022-09-25T01:10:25;15.10;98.80
46356;DHT22;32066;49.474;11.106;2022-09-25T01:12:52;15.10;98.70
46356;DHT22;32066;49.474;11.106;2022-09-25T01:15:23;15.10;98.70
46356;DHT22;32066;49.474;11.106;2022-09-25T01:18:02;15.10;98.80
46356;DHT22;32066;49.474;11.106;2022-09-25T01:20:45;15.00;98.90
46356;DHT22;32066;49.474;11.106;2022-09-25T01:23:21;15.10;99.00
46356;DHT22;32066;49.474;11.106;2022-09-25T01:26:07;15.00;98.90
46356;DHT22;32066;49.474;11.106;2022-09-25T01:28:53;15.00;98.80
46356;DHT22;32066;49.474;11.106;2022-09-25T01:31:26;15.00;98.90
46356;DHT22;32066;49.474;11.106;2022-09-25T01:33:59;15.00;99.00
46356;DHT22;32066;49.474;11.106;2022-09-25T01:36:32;15.00;99.00
46356;DHT22;32066;49.474;11.106;2022-09-25T01:39:06;15.00;99.00
46356;DHT22;32066;49.474;11.106;2022-09-25T01:41:41;15.00;99.10
46356;DHT22;32066;49.474;11.106;2022-09-25T01:44:14;15.00;99.00
46356;DHT22;32066;49.474;11.106;2022-09-25T01:46:45;15.00;99.00
46356;DHT22;32066;49.474;11.106;2022-09-25T01:49:16;15.00;99.00
46356;DHT22;32066;49.474;11.106;2022-09-25T01:51:47;15.00;99.00
46356;DHT22;32066;49.474;11.106;2022-09-25T01:54:17;14.90;98.90
46356;DHT22;32066;49.474;11.106;2022-09-25T01:56:49;14.90;99.00
46356;DHT22;32066;49.474;11.106;2022-09-25T01:59:23;14.90;99.00
46356;DHT22;32066;49.474;11.106;2022-09-25T02:01:52;14.90;99.00
46356;DHT22;32066;49.474;11.106;2022-09-25T02:04:23;14.90;99.00
46356;DHT22;32066;49.474;11.106;2022-09-25T02:06:54;14.90;99.10
46356;DHT22;32066;49.474;11.106;2022-09-25T02:09:25;14.80;99.10
46356;DHT22;32066;49.474;11.106;2022-09-25T02:11:57;14.90;99.00
46356;DHT22;32066;49.474;11.106;2022-09-25T02:14:28;14.90;99.00
46356;DHT22;32066;49.474;11.106;2022-09-25T02:17:00;14.90;99.00
46356;DHT22;32066;49.474;11.106;2022-09-25T02:19:29;14.90;99.00
46356;DHT22;32066;49.474;11.106;2022-09-25T02:22:18;14.90;99.00
46356;DHT22;32066;49.474;11.106;2022-09-25T02:24:49;14.90;99.00
46356;DHT22;32066;49.474;11.106;2022-09-25T02:27:20;14.90;99.00
46356;DHT22;32066;49.474;11.106;2022-09-25T02:29:50;14.90;99.00
46356;DHT22;32066;49.474;11.106;2022-09-25T02:32:19;14.80;99.00
46356;DHT22;32066;49.474;11.106;2022-09-25T02:34:47;14.80;99.10
46356;DHT22;32066;49.474;11.106;2022-09-25T02:37:15;14.80;99.00
46356;DHT22;32066;49.474;11.106;2022-09-25T02:39:44;14.80;98.90
46356;DHT22;32066;49.474;11.106;2022-09-25T02:42:25;14.80;98.90
46356;DHT22;32066;49.474;11.106;2022-09-25T02:45:07;14.80;98.80
46356;DHT22;32066;49.474;11.106;2022-09-25T02:47:38;14.70;98.80
46356;DHT22;32066;49.474;11.106;2022-09-25T02:50:15;14.70;98.60
46356;DHT22;32066;49.474;11.106;2022-09-25T02:52:49;14.60;98.70
46356;DHT22;32066;49.474;11.106;2022-09-25T02:55:22;14.60;98.80
46356;DHT22;32066;49.474;11.106;2022-09-25T02:57:55;14.50;98.90
46356;DHT22;32066;49.474;11.106;2022-09-25T03:00:26;14.60;98.90
46356;DHT22;32066;49.474;11.106;2022-09-25T03:02:56;14.60;98.80
46356;DHT22;32066;49.474;11.106;2022-09-25T03:05:24;14.60;98.70
46356;DHT22;32066;49.474;11.106;2022-09-25T03:07:52;14.60;98.80
46356;DHT22;32066;49.474;11.106;2022-09-25T03:10:37;14.60;98.70
46356;DHT22;32066;49.474;11.106;2022-09-25T03:13:15;14.60;98.70
46356;DHT22;32066;49.474;11.106;2022-09-25T03:15:45;14.60;98.70
46356;DHT22;32066;49.474;11.106;2022-09-25T03:18:14;14.60;98.70
46356;DHT22;32066;49.474;11.106;2022-09-25T03:20:41;14.60;98.70
46356;DHT22;32066;49.474;11.106;2022-09-25T03:23:08;14.60;98.70
46356;DHT22;32066;49.474;11.106;2022-09-25T03:25:36;14.60;98.60
46356;DHT22;32066;49.474;11.106;2022-09-25T03:28:06;14.60;98.50
46356;DHT22;32066;49.474;11.106;2022-09-25T03:30:34;14.60;98.40
46356;DHT22;32066;49.474;11.106;2022-09-25T03:33:04;14.60;98.40
46356;DHT22;32066;49.474;11.106;2022-09-25T03:35:31;14.60;98.40
46356;DHT22;32066;49.474;11.106;2022-09-25T03:37:57;14.60;98.40
46356;DHT22;32066;49.474;11.106;2022-09-25T03:40:24;14.60;98.50
46356;DHT22;32066;49.474;11.106;2022-09-25T03:42:51;14.50;98.60
46356;DHT22;32066;49.474;11.106;2022-09-25T03:45:18;14.50;98.70
46356;DHT22;32066;49.474;11.106;2022-09-25T03:47:45;14.50;98.70
46356;DHT22;32066;49.474;11.106;2022-09-25T03:50:13;14.50;98.60
46356;DHT22;32066;49.474;11.106;2022-09-25T03:52:40;14.50;98.60
46356;DHT22;32066;49.474;11.106;2022-09-25T03:55:07;14.50;98.50
46356;DHT22;32066;49.474;11.106;2022-09-25T03:57:36;14.50;98.50
46356;DHT22;32066;49.474;11.106;2022-09-25T04:00:04;14.50;98.60
46356;DHT22;32066;49.474;11.106;2022-09-25T04:02:38;14.50;98.50
46356;DHT22;32066;49.474;11.106;2022-09-25T04:05:05;14.50;98.50
46356;DHT22;32066;49.474;11.106;2022-09-25T04:07:33;14.50;98.50
46356;DHT22;32066;49.474;11.106;2022-09-25T04:10:00;14.50;98.50
46356;DHT22;32066;49.474;11.106;2022-09-25T04:12:27;14.50;98.50
46356;DHT22;32066;49.474;11.106;2022-09-25T04:14:54;14.50;98.50
46356;DHT22;32066;49.474;11.106;2022-09-25T04:17:21;14.50;98.50
46356;DHT22;32066;49.474;11.106;2022-09-25T04:19:48;14.50;98.50
46356;DHT22;32066;49.474;11.106;2022-09-25T04:22:17;14.50;98.60
46356;DHT22;32066;49.474;11.106;2022-09-25T04:24:45;14.50;98.60
46356;DHT22;32066;49.474;11.106;2022-09-25T04:27:16;14.40;98.70
46356;DHT22;32066;49.474;11.106;2022-09-25T04:29:45;14.50;98.80
46356;DHT22;32066;49.474;11.106;2022-09-25T04:32:12;14.40;98.80
46356;DHT22;32066;49.474;11.106;2022-09-25T04:34:57;14.50;98.90
46356;DHT22;32066;49.474;11.106;2022-09-25T04:37:24;14.50;98.80
46356;DHT22;32066;49.474;11.106;2022-09-25T04:39:53;14.50;98.80
46356;DHT22;32066;49.474;11.106;2022-09-25T04:42:21;14.50;98.70
46356;DHT22;32066;49.474;11.106;2022-09-25T04:44:50;14.40;98.70
46356;DHT22;32066;49.474;11.106;2022-09-25T04:47:18;14.40;98.70
46356;DHT22;32066;49.474;11.106;2022-09-25T04:49:44;14.50;98.60
46356;DHT22;32066;49.474;11.106;2022-09-25T04:52:11;14.50;98.70
46356;DHT22;32066;49.474;11.106;2022-09-25T04:54:40;14.50;98.70
46356;DHT22;32066;49.474;11.106;2022-09-25T04:57:08;14.50;98.80
46356;DHT22;32066;49.474;11.106;2022-09-25T04:59:36;14.40;98.90
46356;DHT22;32066;49.474;11.106;2022-09-25T05:02:03;14.50;98.80
46356;DHT22;32066;49.474;11.106;2022-09-25T05:04:29;14.50;98.70
46356;DHT22;32066;49.474;11.106;2022-09-25T05:06:56;14.50;98.70
46356;DHT22;32066;49.474;11.106;2022-09-25T05:09:23;14.50;98.90
46356;DHT22;32066;49.474;11.106;2022-09-25T05:11:50;14.40;99.00
46356;DHT22;32066;49.474;11.106;2022-09-25T05:14:18;14.40;99.00
46356;DHT22;32066;49.474;11.106;2022-09-25T05:16:45;14.40;99.00
46356;DHT22;32066;49.474;11.106;2022-09-25T05:19:12;14.40;99.00
46356;DHT22;32066;49.474;11.106;2022-09-25T05:21:39;14.50;98.90
46356;DHT22;32066;49.474;11.106;2022-09-25T05:24:07;14.50;98.90
46356;DHT22;32066;49.474;11.106;2022-09-25T05:26:34;14.40;98.60
46356;DHT22;32066;49.474;11.106;2022-09-25T05:29:00;14.50;98.70
46356;DHT22;32066;49.474;11.106;2022-09-25T05:31:29;14.40;98.70
46356;DHT22;32066;49.474;11.106;2022-09-25T05:33:56;14.40;98.70
46356;DHT22;32066;49.474;11.106;2022-09-25T05:36:23;14.40;98.70
46356;DHT22;32066;49.474;11.106;2022-09-25T05:38:50;14.40;98.80
46356;DHT22;32066;49.474;11.106;2022-09-25T05:41:17;14.40;98.80
46356;DHT22;32066;49.474;11.106;2022-09-25T05:43:45;14.50;98.70
46356;DHT22;32066;49.474;11.106;2022-09-25T05:46:13;14.50;98.60
46356;DHT22;32066;49.474;11.106;2022-09-25T05:48:41;14.50;98.50
46356;DHT22;32066;49.474;11.106;2022-09-25T05:51:08;14.50;98.50
46356;DHT22;32066;49.474;11.106;2022-09-25T05:53:35;14.50;98.50
46356;DHT22;32066;49.474;11.106;2022-09-25T05:56:03;14.50;98.40
46356;DHT22;32066;49.474;11.106;2022-09-25T05:58:32;14.50;98.30
46356;DHT22;32066;49.474;11.106;2022-09-25T06:00:59;14.50;98.30
46356;DHT22;32066;49.474;11.106;2022-09-25T06:03:27;14.50;98.10
46356;DHT22;32066;49.474;11.106;2022-09-25T06:05:56;14.50;98.10
46356;DHT22;32066;49.474;11.106;2022-09-25T06:08:23;14.50;98.20
46356;DHT22;32066;49.474;11.106;2022-09-25T06:10:51;14.50;98.10
46356;DHT22;32066;49.474;11.106;2022-09-25T06:13:19;14.50;98.20
46356;DHT22;32066;49.474;11.106;2022-09-25T06:15:46;14.50;98.30
46356;DHT22;32066;49.474;11.106;2022-09-25T06:18:15;14.50;98.20
46356;DHT22;32066;49.474;11.106;2022-09-25T06:20:42;14.50;98.20
46356;DHT22;32066;49.474;11.106;2022-09-25T06:23:10;14.50;98.30
46356;DHT22;32066;49.474;11.106;2022-09-25T06:25:38;14.50;98.50
46356;DHT22;32066;49.474;11.106;2022-09-25T06:28:05;14.50;98.40
46356;DHT22;32066;49.474;11.106;2022-09-25T06:30:33;14.50;98.40
46356;DHT22;32066;49.474;11.106;2022-09-25T06:33:01;14.50;98.40
46356;DHT22;32066;49.474;11.106;2022-09-25T06:35:29;14.50;98.40
46356;DHT22;32066;49.474;11.106;2022-09-25T06:37:57;14.60;98.40
46356;DHT22;32066;49.474;11.106;2022-09-25T06:40:26;14.50;98.50
46356;DHT22;32066;49.474;11.106;2022-09-25T06:42:56;14.60;98.50
46356;DHT22;32066;49.474;11.106;2022-09-25T06:45:24;14.60;98.70
46356;DHT22;32066;49.474;11.106;2022-09-25T06:47:51;14.60;98.70
46356;DHT22;32066;49.474;11.106;2022-09-25T06:50:18;14.40;99.00
46356;DHT22;32066;49.474;11.106;2022-09-25T06:52:45;14.40;99.00
46356;DHT22;32066;49.474;11.106;2022-09-25T06:55:12;14.50;99.10
46356;DHT22;32066;49.474;11.106;2022-09-25T06:57:40;14.50;99.20
46356;DHT22;32066;49.474;11.106;2022-09-25T07:00:08;14.50;99.20
46356;DHT22;32066;49.474;11.106;2022-09-25T07:02:35;14.40;99.20
46356;DHT22;32066;49.474;11.106;2022-09-25T07:05:20;14.60;99.20
46356;DHT22;32066;49.474;11.106;2022-09-25T07:07:46;14.60;99.10
46356;DHT22;32066;49.474;11.106;2022-09-25T07:10:13;14.60;99.40
46356;DHT22;32066;49.474;11.106;2022-09-25T07:12:42;14.60;99.40
46356;DHT22;32066;49.474;11.106;2022-09-25T07:15:08;14.70;99.40
46356;DHT22;32066;49.474;11.106;2022-09-25T07:17:36;14.70;99.20
46356;DHT22;32066;49.474;11.106;2022-09-25T07:20:07;14.80;99.10
46356;DHT22;32066;49.474;11.106;2022-09-25T07:22:34;14.80;99.20
46356;DHT22;32066;49.474;11.106;2022-09-25T07:25:01;14.90;99.10
46356;DHT22;32066;49.474;11.106;2022-09-25T07:27:29;14.90;99.20
46356;DHT22;32066;49.474;11.106;2022-09-25T07:29:57;14.80;99.50
46356;DHT22;32066;49.474;11.106;2022-09-25T07:32:24;14.90;99.40
46356;DHT22;32066;49.474;11.106;2022-09-25T07:34:51;14.90;99.40
46356;DHT22;32066;49.474;11.106;2022-09-25T07:37:18;15.00;99.50
46356;DHT22;32066;49.474;11.106;2022-09-25T07:39:44;15.00;99.40
46356;DHT22;32066;49.474;11.106;2022-09-25T07:42:12;15.00;99.20
46356;DHT22;32066;49.474;11.106;2022-09-25T07:44:38;14.90;99.30
46356;DHT22;32066;49.474;11.106;2022-09-25T07:47:07;14.90;99.50
46356;DHT22;32066;49.474;11.106;2022-09-25T07:49:33;15.00;99.40
46356;DHT22;32066;49.474;11.106;2022-09-25T07:52:00;15.00;99.30
46356;DHT22;32066;49.474;11.106;2022-09-25T07:54:28;15.00;99.10
46356;DHT22;32066;49.474;11.106;2022-09-25T07:56:55;15.00;99.10
46356;DHT22;32066;49.474;11.106;2022-09-25T07:59:21;15.10;99.10
46356;DHT22;32066;49.474;11.106;2022-09-25T08:01:48;15.20;99.10
46356;DHT22;32066;49.474;11.106;2022-09-25T08:04:16;15.30;98.90
46356;DHT22;32066;49.474;11.106;2022-09-25T08:07:01;15.40;98.80
46356;DHT22;32066;49.474;11.106;2022-09-25T08:09:29;15.50;98.70
46356;DHT22;32066;49.474;11.106;2022-09-25T08:11:56;15.50;98.60
46356;DHT22;32066;49.474;11.106;2022-09-25T08:14:22;15.40;98.90
46356;DHT22;32066;49.474;11.106;2022-09-25T08:16:50;15.50;98.60
46356;DHT22;32066;49.474;11.106;2022-09-25T08:19:22;15.60;98.50
46356;DHT22;32066;49.474;11.106;2022-09-25T08:21:49;15.60;98.40
46356;DHT22;32066;49.474;11.106;2022-09-25T08:24:16;15.70;98.20
46356;DHT22;32066;49.474;11.106;2022-09-25T08:26:43;15.80;98.00
46356;DHT22;32066;49.474;11.106;2022-09-25T08:29:09;15.80;97.80
46356;DHT22;32066;49.474;11.106;2022-09-25T08:31:36;15.80;97.80
46356;DHT22;32066;49.474;11.106;2022-09-25T08:34:03;15.60;98.30
46356;DHT22;32066;49.474;11.106;2022-09-25T08:36:33;15.70;97.90
46356;DHT22;32066;49.474;11.106;2022-09-25T08:39:03;15.70;97.70
46356;DHT22;32066;49.474;11.106;2022-09-25T08:41:40;15.70;97.90
46356;DHT22;32066;49.474;11.106;2022-09-25T08:44:17;15.70;97.90
46356;DHT22;32066;49.474;11.106;2022-09-25T08:46:48;15.70;97.90
46356;DHT22;32066;49.474;11.106;2022-09-25T08:49:36;15.80;97.90
46356;DHT22;32066;49.474;11.106;2022-09-25T08:52:10;15.90;98.20
46356;DHT22;32066;49.474;11.106;2022-09-25T08:54:38;16.00;97.90
46356;DHT22;32066;49.474;11.106;2022-09-25T08:57:16;16.00;97.80
46356;DHT22;32066;49.474;11.106;2022-09-25T08:59:49;16.10;97.70
46356;DHT22;32066;49.474;11.106;2022-09-25T09:02:23;16.10;97.60
46356;DHT22;32066;49.474;11.106;2022-09-25T09:04:54;16.20;97.60
46356;DHT22;32066;49.474;11.106;2022-09-25T09:07:25;16.30;97.60
46356;DHT22;32066;49.474;11.106;2022-09-25T09:09:59;16.10;97.60
46356;DHT22;32066;49.474;11.106;2022-09-25T09:12:34;16.10;97.40
46356;DHT22;32066;49.474;11.106;2022-09-25T09:15:17;15.90;97.50
46356;DHT22;32066;49.474;11.106;2022-09-25T09:17:48;15.90;97.70
46356;DHT22;32066;49.474;11.106;2022-09-25T09:20:17;16.00;97.60
46356;DHT22;32066;49.474;11.106;2022-09-25T09:22:48;16.00;97.60
46356;DHT22;32066;49.474;11.106;2022-09-25T09:25:25;16.00;97.80
46356;DHT22;32066;49.474;11.106;2022-09-25T09:28:11;15.90;97.50
46356;DHT22;32066;49.474;11.106;2022-09-25T09:30:47;15.90;97.50
46356;DHT22;32066;49.474;11.106;2022-09-25T09:33:30;15.80;97.40
46356;DHT22;32066;49.474;11.106;2022-09-25T09:36:06;15.80;97.60
46356;DHT22;32066;49.474;11.106;2022-09-25T09:38:45;15.80;97.50
46356;DHT22;32066;49.474;11.106;2022-09-25T09:41:23;15.90;97.50
46356;DHT22;32066;49.474;11.106;2022-09-25T09:44:11;15.90;97.40
46356;DHT22;32066;49.474;11.106;2022-09-25T09:46:49;15.80;97.40
46356;DHT22;32066;49.474;11.106;2022-09-25T09:49:22;15.70;97.30
46356;DHT22;32066;49.474;11.106;2022-09-25T09:51:56;15.90;97.40
46356;DHT22;32066;49.474;11.106;2022-09-25T09:54:30;16.10;97.20
46356;DHT22;32066;49.474;11.106;2022-09-25T09:57:01;16.20;97.00
46356;DHT22;32066;49.474;11.106;2022-09-25T09:59:43;16.30;96.70
46356;DHT22;32066;49.474;11.106;2022-09-25T10:02:19;16.50;96.70
46356;DHT22;32066;49.474;11.106;2022-09-25T10:04:51;16.60;96.60
46356;DHT22;32066;49.474;11.106;2022-09-25T10:07:21;16.60;96.60
46356;DHT22;32066;49.474;11.106;2022-09-25T10:09:52;16.70;96.60
46356;DHT22;32066;49.474;11.106;2022-09-25T10:12:25;16.80;96.50
46356;DHT22;32066;49.474;11.106;2022-09-25T10:14:53;16.90;96.40
46356;DHT22;32066;49.474;11.106;2022-09-25T10:17:21;16.90;95.90
46356;DHT22;32066;49.474;11.106;2022-09-25T10:19:52;16.70;95.90
46356;DHT22;32066;49.474;11.106;2022-09-25T10:22:21;16.90;96.00
46356;DHT22;32066;49.474;11.106;2022-09-25T10:24:58;16.90;95.70
46356;DHT22;32066;49.474;11.106;2022-09-25T10:27:31;17.10;95.70
46356;DHT22;32066;49.474;11.106;2022-09-25T10:30:02;17.20;95.70
46356;DHT22;32066;49.474;11.106;2022-09-25T10:32:30;17.40;96.00
46356;DHT22;32066;49.474;11.106;2022-09-25T10:35:00;17.40;95.90
46356;DHT22;32066;49.474;11.106;2022-09-25T10:37:30;17.60;95.90
46356;DHT22;32066;49.474;11.106;2022-09-25T10:40:04;17.80;95.60
46356;DHT22;32066;49.474;11.106;2022-09-25T10:42:36;18.00;95.00
46356;DHT22;32066;49.474;11.106;2022-09-25T10:45:29;18.30;94.10
46356;DHT22;32066;49.474;11.106;2022-09-25T10:47:56;18.40;93.90
46356;DHT22;32066;49.474;11.106;2022-09-25T10:50:41;18.50;93.30
46356;DHT22;32066;49.474;11.106;2022-09-25T10:53:23;18.70;92.60
46356;DHT22;32066;49.474;11.106;2022-09-25T10:55:59;18.90;92.00
46356;DHT22;32066;49.474;11.106;2022-09-25T10:58:30;19.00;91.00
46356;DHT22;32066;49.474;11.106;2022-09-25T11:01:01;19.10;91.10
46356;DHT22;32066;49.474;11.106;2022-09-25T11:03:31;19.10;90.90
46356;DHT22;32066;49.474;11.106;2022-09-25T11:06:01;19.10;90.70
46356;DHT22;32066;49.474;11.106;2022-09-25T11:08:31;19.10;91.10
46356;DHT22;32066;49.474;11.106;2022-09-25T11:11:01;19.10;91.30
46356;DHT22;32066;49.474;11.106;2022-09-25T11:13:30;19.10;90.70
46356;DHT22;32066;49.474;11.106;2022-09-25T11:16:03;19.00;90.50
46356;DHT22;32066;49.474;11.106;2022-09-25T11:18:50;19.00;90.90
46356;DHT22;32066;49.474;11.106;2022-09-25T11:21:36;19.10;90.40
46356;DHT22;32066;49.474;11.106;2022-09-25T11:24:08;19.00;90.30
46356;DHT22;32066;49.474;11.106;2022-09-25T11:26:46;19.00;90.40
46356;DHT22;32066;49.474;11.106;2022-09-25T11:29:21;19.20;90.40
46356;DHT22;32066;49.474;11.106;2022-09-25T11:31:53;19.10;87.90
46356;DHT22;32066;49.474;11.106;2022-09-25T11:34:31;19.10;89.00
46356;DHT22;32066;49.474;11.106;2022-09-25T11:37:06;19.30;88.10
46356;DHT22;32066;49.474;11.106;2022-09-25T11:39:39;19.50;87.00
46356;DHT22;32066;49.474;11.106;2022-09-25T11:42:30;19.60;85.70
46356;DHT22;32066;49.474;11.106;2022-09-25T11:45:03;19.90;85.90
46356;DHT22;32066;49.474;11.106;2022-09-25T11:47:39;20.00;83.40
46356;DHT22;32066;49.474;11.106;2022-09-25T11:50:10;20.00;83.70
46356;DHT22;32066;49.474;11.106;2022-09-25T11:52:45;20.00;83.50
46356;DHT22;32066;49.474;11.106;2022-09-25T11:55:35;19.80;83.80
46356;DHT22;32066;49.474;11.106;2022-09-25T11:58:19;19.60;83.90
46356;DHT22;32066;49.474;11.106;2022-09-25T12:00:54;19.50;86.30
46356;DHT22;32066;49.474;11.106;2022-09-25T12:03:36;19.30;87.60
46356;DHT22;32066;49.474;11.106;2022-09-25T12:06:23;19.10;88.10
46356;DHT22;32066;49.474;11.106;2022-09-25T12:09:02;19.00;88.50
46356;DHT22;32066;49.474;11.106;2022-09-25T12:11:35;18.80;89.60
46356;DHT22;32066;49.474;11.106;2022-09-25T12:14:14;18.60;89.00
46356;DHT22;32066;49.474;11.106;2022-09-25T12:16:50;18.40;89.60
46356;DHT22;32066;49.474;11.106;2022-09-25T12:19:22;18.40;89.60
46356;DHT22;32066;49.474;11.106;2022-09-25T12:21:56;18.50;89.10
46356;DHT22;32066;49.474;11.106;2022-09-25T12:24:35;18.40;89.30
46356;DHT22;32066;49.474;11.106;2022-09-25T12:27:10;18.30;89.80
46356;DHT22;32066;49.474;11.106;2022-09-25T12:29:50;18.30;89.00
46356;DHT22;32066;49.474;11.106;2022-09-25T12:32:28;18.30;89.70
46356;DHT22;32066;49.474;11.106;2022-09-25T12:35:17;18.20;90.20
46356;DHT22;32066;49.474;11.106;2022-09-25T12:37:50;18.20;90.50
46356;DHT22;32066;49.474;11.106;2022-09-25T12:40:23;18.10;90.90
46356;DHT22;32066;49.474;11.106;2022-09-25T12:42:56;18.10;91.00
46356;DHT22;32066;49.474;11.106;2022-09-25T12:45:32;18.10;91.10
46356;DHT22;32066;49.474;11.106;2022-09-25T12:48:05;18.30;91.70
46356;DHT22;32066;49.474;11.106;2022-09-25T12:50:39;18.40;91.40
46356;DHT22;32066;49.474;11.106;2022-09-25T12:53:20;18.60;91.60
46356;DHT22;32066;49.474;11.106;2022-09-25T12:55:51;18.80;91.60
46356;DHT22;32066;49.474;11.106;2022-09-25T12:58:27;18.90;91.60
46356;DHT22;32066;49.474;11.106;2022-09-25T13:01:03;19.00;91.40
46356;DHT22;32066;49.474;11.106;2022-09-25T13:03:41;19.00;91.30
46356;DHT22;32066;49.474;11.106;2022-09-25T13:06:15;19.10;91.10
46356;DHT22;32066;49.474;11.106;2022-09-25T13:08:49;19.10;91.00
46356;DHT22;32066;49.474;11.106;2022-09-25T13:11:28;19.10;90.90
46356;DHT22;32066;49.474;11.106;2022-09-25T13:13:59;19.10;90.80
46356;DHT22;32066;49.474;11.106;2022-09-25T13:16:28;19.00;91.00
46356;DHT22;32066;49.474;11.106;2022-09-25T13:19:09;18.90;91.00
46356;DHT22;32066;49.474;11.106;2022-09-25T13:21:38;18.90;90.90
46356;DHT22;32066;49.474;11.106;2022-09-25T13:24:09;18.70;91.10
46356;DHT22;32066;49.474;11.106;2022-09-25T13:26:43;18.70;91.20
46356;DHT22;32066;49.474;11.106;2022-09-25T13:29:20;18.60;91.20
46356;DHT22;32066;49.474;11.106;2022-09-25T13:31:49;18.60;91.50
46356;DHT22;32066;49.474;11.106;2022-09-25T13:34:19;18.40;91.70
46356;DHT22;32066;49.474;11.106;2022-09-25T13:36:49;18.30;92.30
46356;DHT22;32066;49.474;11.106;2022-09-25T13:39:24;18.00;93.00
46356;DHT22;32066;49.474;11.106;2022-09-25T13:42:15;17.80;93.40
46356;DHT22;32066;49.474;11.106;2022-09-25T13:44:50;17.50;94.30
46356;DHT22;32066;49.474;11.106;2022-09-25T13:47:54;17.50;94.50
46356;DHT22;32066;49.474;11.106;2022-09-25T13:50:24;17.40;94.70
46356;DHT22;32066;49.474;11.106;2022-09-25T13:53:02;17.50;94.80
46356;DHT22;32066;49.474;11.106;2022-09-25T14:01:55;17.40;95.00
46356;DHT22;32066;49.474;11.106;2022-09-25T14:04:35;17.30;95.10
46356;DHT22;32066;49.474;11.106;2022-09-25T14:07:17;17.40;95.10
46356;DHT22;32066;49.474;11.106;2022-09-25T14:09:47;17.30;95.10
46356;DHT22;32066;49.474;11.106;2022-09-25T14:12:26;17.40;95.40
46356;DHT22;32066;49.474;11.106;2022-09-25T14:14:57;17.30;95.50
46356;DHT22;32066;49.474;11.106;2022-09-25T14:17:28;17.30;95.50
46356;DHT22;32066;49.474;11.106;2022-09-25T14:19:59;17.40;95.50
46356;DHT22;32066;49.474;11.106;2022-09-25T14:22:33;17.30;95.30
46356;DHT22;32066;49.474;11.106;2022-09-25T14:27:49;17.40;95.30
46356;DHT22;32066;49.474;11.106;2022-09-25T14:30:17;17.30;95.10
46356;DHT22;32066;49.474;11.106;2022-09-25T14:32:53;17.30;94.70
46356;DHT22;32066;49.474;11.106;2022-09-25T14:35:31;17.20;94.50
46356;DHT22;32066;49.474;11.106;2022-09-25T14:38:15;17.20;94.90
46356;DHT22;32066;49.474;11.106;2022-09-25T14:40:56;17.20;95.30
46356;DHT22;32066;49.474;11.106;2022-09-25T14:43:50;17.30;95.60
46356;DHT22;32066;49.474;11.106;2022-09-25T14:46:20;17.30;95.90
46356;DHT22;32066;49.474;11.106;2022-09-25T14:48:50;17.30;96.00
46356;DHT22;32066;49.474;11.106;2022-09-25T14:51:24;17.40;95.90
46356;DHT22;32066;49.474;11.106;2022-09-25T14:53:54;17.40;95.90
46356;DHT22;32066;49.474;11.106;2022-09-25T14:56:23;17.40;96.10
46356;DHT22;32066;49.474;11.106;2022-09-25T14:58:54;17.50;96.10
46356;DHT22;32066;49.474;11.106;2022-09-25T15:01:25;17.50;96.10
46356;DHT22;32066;49.474;11.106;2022-09-25T15:03:57;17.50;96.00
46356;DHT22;32066;49.474;11.106;2022-09-25T15:06:28;17.50;95.80
46356;DHT22;32066;49.474;11.106;2022-09-25T15:08:56;17.50;95.80
46356;DHT22;32066;49.474;11.106;2022-09-25T15:11:25;17.50;95.90
46356;DHT22;32066;49.474;11.106;2022-09-25T15:14:03;17.60;95.90
46356;DHT22;32066;49.474;11.106;2022-09-25T15:16:36;17.50;95.90
46356;DHT22;32066;49.474;11.106;2022-09-25T15:19:25;17.50;95.50
46356;DHT22;32066;49.474;11.106;2022-09-25T15:21:54;17.60;95.30
46356;DHT22;32066;49.474;11.106;2022-09-25T15:24:23;17.50;95.50
46356;DHT22;32066;49.474;11.106;2022-09-25T15:26:56;17.40;95.70
46356;DHT22;32066;49.474;11.106;2022-09-25T15:29:29;17.40;95.40
46356;DHT22;32066;49.474;11.106;2022-09-25T15:31:56;17.50;95.20
46356;DHT22;32066;49.474;11.106;2022-09-25T15:34:25;17.40;95.30
46356;DHT22;32066;49.474;11.106;2022-09-25T15:37:16;17.30;95.50
46356;DHT22;32066;49.474;11.106;2022-09-25T15:39:45;17.20;95.50
46356;DHT22;32066;49.474;11.106;2022-09-25T15:42:13;17.10;95.70
46356;DHT22;32066;49.474;11.106;2022-09-25T15:44:41;17.10;95.80
46356;DHT22;32066;49.474;11.106;2022-09-25T15:47:45;17.10;95.80
46356;DHT22;32066;49.474;11.106;2022-09-25T15:50:19;17.10;95.80
46356;DHT22;32066;49.474;11.106;2022-09-25T15:52:50;17.10;95.90